sensor_id;sensor_type;location;lat;lon;timestamp;P1;durP1;ratioP1;P2;durP2;ratioP2
23614;SDS011;11985;49.404;7.734;2023-03-01T00:00:47;18.75;;;8.05;;
23614;SDS011;11985;49.404;7.734;2023-03-01T00:05:49;14.40;;;7.72;;
23614;SDS011;11985;49.404;7.734;2023-03-01T00:11:00;15.93;;;7.78;;
23614;SDS011;11985;49.404;7.734;2023-03-01T00:16:03;19.50;;;8.10;;
23614;SDS011;11985;49.404;7.734;2023-03-01T00:21:05;14.68;;;7.70;;
23614;SDS011;11985;49.404;7.734;2023-03-01T00:26:09;15.65;;;8.02;;
23614;SDS011;11985;49.404;7.734;2023-03-01T00:31:14;16.48;;;8.60;;
23614;SDS011;11985;49.404;7.734;2023-03-01T00:36:17;15.73;;;6.80;;
23614;SDS011;11985;49.404;7.734;2023-03-01T00:41:20;16.80;;;8.75;;
23614;SDS011;11985;49.404;7.734;2023-03-01T00:46:24;16.67;;;8.65;;
23614;SDS011;11985;49.404;7.734;2023-03-01T00:51:27;19.00;;;8.70;;
23614;SDS011;11985;49.404;7.734;2023-03-01T00:56:30;17.00;;;7.80;;
23614;SDS011;11985;49.404;7.734;2023-03-01T01:01:32;20.85;;;10.02;;
23614;SDS011;11985;49.404;7.734;2023-03-01T01:06:34;20.88;;;9.00;;
23614;SDS011;11985;49.404;7.734;2023-03-01T01:11:39;21.60;;;9.45;;
23614;SDS011;11985;49.404;7.734;2023-03-01T01:16:40;24.67;;;9.38;;
23614;SDS011;11985;49.404;7.734;2023-03-01T01:21:42;21.23;;;9.88;;
23614;SDS011;11985;49.404;7.734;2023-03-01T01:26:46;17.00;;;9.23;;
23614;SDS011;11985;49.404;7.734;2023-03-01T01:31:49;21.52;;;9.95;;
23614;SDS011;11985;49.404;7.734;2023-03-01T01:36:51;19.30;;;9.65;;
23614;SDS011;11985;49.404;7.734;2023-03-01T01:41:55;25.13;;;9.77;;
23614;SDS011;11985;49.404;7.734;2023-03-01T01:46:57;22.13;;;9.70;;
23614;SDS011;11985;49.404;7.734;2023-03-01T01:52:03;21.73;;;10.13;;
23614;SDS011;11985;49.404;7.734;2023-03-01T01:57:14;20.77;;;9.57;;
23614;SDS011;11985;49.404;7.734;2023-03-01T02:02:20;25.75;;;10.50;;
23614;SDS011;11985;49.404;7.734;2023-03-01T02:07:22;23.23;;;10.38;;
23614;SDS011;11985;49.404;7.734;2023-03-01T02:12:27;24.45;;;10.85;;
23614;SDS011;11985;49.404;7.734;2023-03-01T02:17:29;21.10;;;10.95;;
23614;SDS011;11985;49.404;7.734;2023-03-01T02:22:31;19.42;;;10.18;;
23614;SDS011;11985;49.404;7.734;2023-03-01T02:27:38;22.17;;;10.73;;
23614;SDS011;11985;49.404;7.734;2023-03-01T02:32:48;26.80;;;11.60;;
23614;SDS011;11985;49.404;7.734;2023-03-01T02:37:53;21.02;;;9.20;;
23614;SDS011;11985;49.404;7.734;2023-03-01T02:42:57;13.33;;;7.60;;
23614;SDS011;11985;49.404;7.734;2023-03-01T02:48:01;22.30;;;10.38;;
23614;SDS011;11985;49.404;7.734;2023-03-01T02:53:04;21.35;;;10.80;;
23614;SDS011;11985;49.404;7.734;2023-03-01T02:58:09;25.45;;;11.32;;
23614;SDS011;11985;49.404;7.734;2023-03-01T03:03:12;25.42;;;10.55;;
23614;SDS011;11985;49.404;7.734;2023-03-01T03:08:15;18.60;;;8.07;;
23614;SDS011;11985;49.404;7.734;2023-03-01T03:13:23;24.73;;;11.32;;
23614;SDS011;11985;49.404;7.734;2023-03-01T03:18:29;26.52;;;12.55;;
23614;SDS011;11985;49.404;7.734;2023-03-01T03:23:31;25.20;;;11.85;;
23614;SDS011;11985;49.404;7.734;2023-03-01T03:28:33;23.42;;;11.60;;
23614;SDS011;11985;49.404;7.734;2023-03-01T03:33:37;27.95;;;11.32;;
23614;SDS011;11985;49.404;7.734;2023-03-01T03:38:39;26.13;;;11.50;;
23614;SDS011;11985;49.404;7.734;2023-03-01T03:43:41;23.80;;;11.57;;
23614;SDS011;11985;49.404;7.734;2023-03-01T03:48:45;28.83;;;12.35;;
23614;SDS011;11985;49.404;7.734;2023-03-01T03:53:47;27.00;;;12.50;;
23614;SDS011;11985;49.404;7.734;2023-03-01T03:58:48;29.40;;;11.75;;
23614;SDS011;11985;49.404;7.734;2023-03-01T04:03:51;29.05;;;11.88;;
23614;SDS011;11985;49.404;7.734;2023-03-01T04:08:54;27.95;;;12.57;;
23614;SDS011;11985;49.404;7.734;2023-03-01T04:13:58;31.07;;;12.60;;
23614;SDS011;11985;49.404;7.734;2023-03-01T04:19:01;27.08;;;12.65;;
23614;SDS011;11985;49.404;7.734;2023-03-01T04:24:03;28.55;;;12.52;;
23614;SDS011;11985;49.404;7.734;2023-03-01T04:29:05;32.72;;;13.68;;
23614;SDS011;11985;49.404;7.734;2023-03-01T04:34:08;30.25;;;12.95;;
23614;SDS011;11985;49.404;7.734;2023-03-01T04:39:09;33.60;;;12.80;;
23614;SDS011;11985;49.404;7.734;2023-03-01T04:44:13;29.02;;;12.55;;
23614;SDS011;11985;49.404;7.734;2023-03-01T04:49:15;32.28;;;13.70;;
23614;SDS011;11985;49.404;7.734;2023-03-01T04:54:17;35.25;;;13.18;;
23614;SDS011;11985;49.404;7.734;2023-03-01T04:59:18;33.45;;;13.25;;
23614;SDS011;11985;49.404;7.734;2023-03-01T05:04:23;27.83;;;12.32;;
23614;SDS011;11985;49.404;7.734;2023-03-01T05:09:25;30.92;;;12.68;;
23614;SDS011;11985;49.404;7.734;2023-03-01T05:14:27;30.67;;;14.23;;
23614;SDS011;11985;49.404;7.734;2023-03-01T05:19:30;28.63;;;13.45;;
23614;SDS011;11985;49.404;7.734;2023-03-01T05:24:33;22.93;;;10.37;;
23614;SDS011;11985;49.404;7.734;2023-03-01T05:29:35;29.42;;;12.95;;
23614;SDS011;11985;49.404;7.734;2023-03-01T05:34:40;26.70;;;12.65;;
23614;SDS011;11985;49.404;7.734;2023-03-01T05:39:43;27.83;;;12.93;;
23614;SDS011;11985;49.404;7.734;2023-03-01T05:44:44;26.75;;;12.93;;
23614;SDS011;11985;49.404;7.734;2023-03-01T05:49:47;33.75;;;12.98;;
23614;SDS011;11985;49.404;7.734;2023-03-01T05:54:50;19.40;;;9.27;;
23614;SDS011;11985;49.404;7.734;2023-03-01T05:59:51;32.70;;;14.07;;
23614;SDS011;11985;49.404;7.734;2023-03-01T06:04:54;29.65;;;14.45;;
23614;SDS011;11985;49.404;7.734;2023-03-01T06:09:56;29.85;;;14.13;;
23614;SDS011;11985;49.404;7.734;2023-03-01T06:14:57;31.48;;;14.13;;
23614;SDS011;11985;49.404;7.734;2023-03-01T06:20:01;30.85;;;12.80;;
23614;SDS011;11985;49.404;7.734;2023-03-01T06:25:03;30.40;;;13.45;;
23614;SDS011;11985;49.404;7.734;2023-03-01T06:30:06;25.88;;;12.90;;
23614;SDS011;11985;49.404;7.734;2023-03-01T06:35:11;36.97;;;13.93;;
23614;SDS011;11985;49.404;7.734;2023-03-01T06:45:17;22.45;;;10.82;;
23614;SDS011;11985;49.404;7.734;2023-03-01T06:50:21;29.33;;;13.82;;
23614;SDS011;11985;49.404;7.734;2023-03-01T06:55:22;32.58;;;14.77;;
23614;SDS011;11985;49.404;7.734;2023-03-01T07:00:24;34.80;;;14.13;;
23614;SDS011;11985;49.404;7.734;2023-03-01T07:05:28;32.38;;;14.02;;
23614;SDS011;11985;49.404;7.734;2023-03-01T07:10:30;33.17;;;13.93;;
23614;SDS011;11985;49.404;7.734;2023-03-01T07:15:31;27.25;;;13.68;;
23614;SDS011;11985;49.404;7.734;2023-03-01T07:20:34;32.88;;;14.07;;
23614;SDS011;11985;49.404;7.734;2023-03-01T07:25:36;25.20;;;13.25;;
23614;SDS011;11985;49.404;7.734;2023-03-01T07:30:38;29.73;;;14.40;;
23614;SDS011;11985;49.404;7.734;2023-03-01T07:35:41;31.00;;;14.15;;
23614;SDS011;11985;49.404;7.734;2023-03-01T07:40:43;29.70;;;14.25;;
23614;SDS011;11985;49.404;7.734;2023-03-01T07:45:45;25.33;;;11.80;;
23614;SDS011;11985;49.404;7.734;2023-03-01T07:50:47;31.75;;;13.75;;
23614;SDS011;11985;49.404;7.734;2023-03-01T07:55:49;29.75;;;13.30;;
23614;SDS011;11985;49.404;7.734;2023-03-01T08:00:51;35.30;;;15.02;;
23614;SDS011;11985;49.404;7.734;2023-03-01T08:05:53;34.17;;;13.88;;
23614;SDS011;11985;49.404;7.734;2023-03-01T08:10:56;32.67;;;14.27;;
23614;SDS011;11985;49.404;7.734;2023-03-01T08:16:00;33.88;;;14.75;;
23614;SDS011;11985;49.404;7.734;2023-03-01T08:21:04;31.92;;;14.13;;
23614;SDS011;11985;49.404;7.734;2023-03-01T08:31:13;30.73;;;14.48;;
23614;SDS011;11985;49.404;7.734;2023-03-01T08:36:17;29.77;;;13.93;;
23614;SDS011;11985;49.404;7.734;2023-03-01T08:41:20;33.92;;;15.27;;
23614;SDS011;11985;49.404;7.734;2023-03-01T08:46:22;29.42;;;13.57;;
23614;SDS011;11985;49.404;7.734;2023-03-01T08:51:25;28.05;;;14.48;;
23614;SDS011;11985;49.404;7.734;2023-03-01T08:56:27;25.02;;;11.27;;
23614;SDS011;11985;49.404;7.734;2023-03-01T09:01:29;30.33;;;14.82;;
23614;SDS011;11985;49.404;7.734;2023-03-01T09:06:32;31.65;;;14.52;;
23614;SDS011;11985;49.404;7.734;2023-03-01T09:11:34;30.27;;;15.27;;
23614;SDS011;11985;49.404;7.734;2023-03-01T09:16:36;31.38;;;14.00;;
23614;SDS011;11985;49.404;7.734;2023-03-01T09:21:39;32.45;;;15.07;;
23614;SDS011;11985;49.404;7.734;2023-03-01T09:26:41;29.40;;;13.48;;
23614;SDS011;11985;49.404;7.734;2023-03-01T09:31:42;28.33;;;13.73;;
23614;SDS011;11985;49.404;7.734;2023-03-01T09:36:45;24.67;;;12.13;;
23614;SDS011;11985;49.404;7.734;2023-03-01T09:41:49;27.27;;;14.32;;
23614;SDS011;11985;49.404;7.734;2023-03-01T09:46:55;31.20;;;14.68;;
23614;SDS011;11985;49.404;7.734;2023-03-01T09:52:00;31.85;;;14.65;;
23614;SDS011;11985;49.404;7.734;2023-03-01T09:57:17;24.23;;;13.75;;
23614;SDS011;11985;49.404;7.734;2023-03-01T10:02:23;29.33;;;13.35;;
23614;SDS011;11985;49.404;7.734;2023-03-01T10:07:32;28.38;;;13.75;;
23614;SDS011;11985;49.404;7.734;2023-03-01T10:12:46;29.10;;;14.38;;
23614;SDS011;11985;49.404;7.734;2023-03-01T10:17:48;26.50;;;13.52;;
23614;SDS011;11985;49.404;7.734;2023-03-01T10:22:55;27.95;;;14.63;;
23614;SDS011;11985;49.404;7.734;2023-03-01T10:27:59;27.17;;;14.05;;
23614;SDS011;11985;49.404;7.734;2023-03-01T10:33:04;27.08;;;13.70;;
23614;SDS011;11985;49.404;7.734;2023-03-01T10:38:20;30.70;;;16.17;;
23614;SDS011;11985;49.404;7.734;2023-03-01T10:43:22;29.85;;;15.30;;
23614;SDS011;11985;49.404;7.734;2023-03-01T10:48:25;31.17;;;14.15;;
23614;SDS011;11985;49.404;7.734;2023-03-01T10:53:30;25.53;;;11.27;;
23614;SDS011;11985;49.404;7.734;2023-03-01T10:58:34;28.90;;;14.73;;
23614;SDS011;11985;49.404;7.734;2023-03-01T11:03:37;31.02;;;15.20;;
23614;SDS011;11985;49.404;7.734;2023-03-01T11:08:41;27.80;;;14.98;;
23614;SDS011;11985;49.404;7.734;2023-03-01T11:13:52;28.05;;;14.18;;
23614;SDS011;11985;49.404;7.734;2023-03-01T11:18:57;28.67;;;14.07;;
23614;SDS011;11985;49.404;7.734;2023-03-01T11:24:02;24.70;;;14.40;;
23614;SDS011;11985;49.404;7.734;2023-03-01T11:29:07;37.20;;;15.38;;
23614;SDS011;11985;49.404;7.734;2023-03-01T11:34:19;30.45;;;16.55;;
23614;SDS011;11985;49.404;7.734;2023-03-01T11:39:27;36.17;;;18.17;;
23614;SDS011;11985;49.404;7.734;2023-03-01T11:44:33;34.40;;;16.33;;
23614;SDS011;11985;49.404;7.734;2023-03-01T11:49:41;31.73;;;15.95;;
23614;SDS011;11985;49.404;7.734;2023-03-01T11:55:12;28.85;;;14.90;;
23614;SDS011;11985;49.404;7.734;2023-03-01T12:00:31;27.65;;;14.70;;
23614;SDS011;11985;49.404;7.734;2023-03-01T12:05:50;27.88;;;15.25;;
23614;SDS011;11985;49.404;7.734;2023-03-01T12:11:06;31.52;;;15.38;;
23614;SDS011;11985;49.404;7.734;2023-03-01T12:16:20;31.02;;;14.38;;
23614;SDS011;11985;49.404;7.734;2023-03-01T12:21:35;28.92;;;15.30;;
23614;SDS011;11985;49.404;7.734;2023-03-01T12:26:50;27.70;;;15.65;;
23614;SDS011;11985;49.404;7.734;2023-03-01T12:37:33;30.05;;;15.00;;
23614;SDS011;11985;49.404;7.734;2023-03-01T12:42:46;30.92;;;15.95;;
23614;SDS011;11985;49.404;7.734;2023-03-01T12:48:04;26.75;;;14.70;;
23614;SDS011;11985;49.404;7.734;2023-03-01T12:53:20;32.80;;;15.02;;
23614;SDS011;11985;49.404;7.734;2023-03-01T12:58:29;31.63;;;16.98;;
23614;SDS011;11985;49.404;7.734;2023-03-01T13:03:38;32.47;;;15.00;;
23614;SDS011;11985;49.404;7.734;2023-03-01T13:08:47;27.30;;;15.02;;
23614;SDS011;11985;49.404;7.734;2023-03-01T13:14:00;27.92;;;15.20;;
23614;SDS011;11985;49.404;7.734;2023-03-01T13:19:38;31.73;;;16.33;;
23614;SDS011;11985;49.404;7.734;2023-03-01T13:24:42;28.50;;;16.10;;
23614;SDS011;11985;49.404;7.734;2023-03-01T13:29:45;30.80;;;15.88;;
23614;SDS011;11985;49.404;7.734;2023-03-01T13:34:52;32.73;;;16.63;;
23614;SDS011;11985;49.404;7.734;2023-03-01T13:39:55;27.15;;;16.00;;
23614;SDS011;11985;49.404;7.734;2023-03-01T13:45:00;29.27;;;15.13;;
23614;SDS011;11985;49.404;7.734;2023-03-01T13:50:03;32.45;;;15.50;;
23614;SDS011;11985;49.404;7.734;2023-03-01T13:55:06;35.03;;;16.23;;
23614;SDS011;11985;49.404;7.734;2023-03-01T14:00:26;26.80;;;14.70;;
23614;SDS011;11985;49.404;7.734;2023-03-01T14:05:37;32.63;;;15.25;;
23614;SDS011;11985;49.404;7.734;2023-03-01T14:10:42;25.65;;;14.10;;
23614;SDS011;11985;49.404;7.734;2023-03-01T14:15:59;29.15;;;16.10;;
23614;SDS011;11985;49.404;7.734;2023-03-01T14:21:12;27.90;;;15.07;;
23614;SDS011;11985;49.404;7.734;2023-03-01T14:26:19;27.17;;;14.48;;
23614;SDS011;11985;49.404;7.734;2023-03-01T14:31:34;23.65;;;13.43;;
23614;SDS011;11985;49.404;7.734;2023-03-01T14:36:37;26.38;;;12.85;;
23614;SDS011;11985;49.404;7.734;2023-03-01T14:41:38;23.70;;;13.60;;
23614;SDS011;11985;49.404;7.734;2023-03-01T14:46:42;25.73;;;13.45;;
23614;SDS011;11985;49.404;7.734;2023-03-01T14:56:51;23.95;;;11.90;;
23614;SDS011;11985;49.404;7.734;2023-03-01T15:01:56;26.08;;;13.52;;
23614;SDS011;11985;49.404;7.734;2023-03-01T15:17:26;23.30;;;11.40;;
23614;SDS011;11985;49.404;7.734;2023-03-01T15:22:32;21.70;;;11.43;;
23614;SDS011;11985;49.404;7.734;2023-03-01T15:27:33;22.77;;;11.68;;
23614;SDS011;11985;49.404;7.734;2023-03-01T15:32:38;20.63;;;10.85;;
23614;SDS011;11985;49.404;7.734;2023-03-01T15:37:43;26.23;;;11.43;;
23614;SDS011;11985;49.404;7.734;2023-03-01T15:42:47;22.02;;;10.93;;
23614;SDS011;11985;49.404;7.734;2023-03-01T15:47:51;20.50;;;10.65;;
23614;SDS011;11985;49.404;7.734;2023-03-01T15:52:54;16.67;;;10.27;;
23614;SDS011;11985;49.404;7.734;2023-03-01T15:57:57;16.30;;;8.65;;
23614;SDS011;11985;49.404;7.734;2023-03-01T16:03:02;15.53;;;8.60;;
23614;SDS011;11985;49.404;7.734;2023-03-01T16:08:04;19.95;;;8.90;;
23614;SDS011;11985;49.404;7.734;2023-03-01T16:13:07;16.52;;;9.32;;
23614;SDS011;11985;49.404;7.734;2023-03-01T16:18:10;18.77;;;10.00;;
23614;SDS011;11985;49.404;7.734;2023-03-01T16:23:12;22.42;;;9.68;;
23614;SDS011;11985;49.404;7.734;2023-03-01T16:28:14;17.73;;;8.55;;
23614;SDS011;11985;49.404;7.734;2023-03-01T16:33:17;15.43;;;9.45;;
23614;SDS011;11985;49.404;7.734;2023-03-01T16:38:18;18.38;;;9.95;;
23614;SDS011;11985;49.404;7.734;2023-03-01T16:43:20;19.50;;;8.88;;
23614;SDS011;11985;49.404;7.734;2023-03-01T16:48:23;13.93;;;7.95;;
23614;SDS011;11985;49.404;7.734;2023-03-01T16:53:24;16.67;;;9.18;;
23614;SDS011;11985;49.404;7.734;2023-03-01T16:58:26;16.02;;;9.18;;
23614;SDS011;11985;49.404;7.734;2023-03-01T17:03:29;17.90;;;9.13;;
23614;SDS011;11985;49.404;7.734;2023-03-01T17:08:31;16.10;;;8.85;;
23614;SDS011;11985;49.404;7.734;2023-03-01T17:13:33;20.90;;;9.50;;
23614;SDS011;11985;49.404;7.734;2023-03-01T17:18:37;20.38;;;8.85;;
23614;SDS011;11985;49.404;7.734;2023-03-01T17:23:39;19.98;;;10.30;;
23614;SDS011;11985;49.404;7.734;2023-03-01T17:28:42;18.03;;;9.40;;
23614;SDS011;11985;49.404;7.734;2023-03-01T17:33:45;19.10;;;9.60;;
23614;SDS011;11985;49.404;7.734;2023-03-01T17:38:47;23.40;;;9.57;;
23614;SDS011;11985;49.404;7.734;2023-03-01T17:43:49;19.10;;;9.75;;
23614;SDS011;11985;49.404;7.734;2023-03-01T17:48:52;20.08;;;9.98;;
23614;SDS011;11985;49.404;7.734;2023-03-01T17:53:53;16.42;;;8.32;;
23614;SDS011;11985;49.404;7.734;2023-03-01T17:58:55;18.27;;;8.35;;
23614;SDS011;11985;49.404;7.734;2023-03-01T18:03:58;23.05;;;8.85;;
23614;SDS011;11985;49.404;7.734;2023-03-01T18:08:59;19.35;;;9.50;;
23614;SDS011;11985;49.404;7.734;2023-03-01T18:14:01;18.17;;;8.55;;
23614;SDS011;11985;49.404;7.734;2023-03-01T18:19:04;19.75;;;9.00;;
23614;SDS011;11985;49.404;7.734;2023-03-01T18:24:06;19.17;;;9.30;;
23614;SDS011;11985;49.404;7.734;2023-03-01T18:29:08;19.20;;;9.02;;
23614;SDS011;11985;49.404;7.734;2023-03-01T18:34:13;15.48;;;8.38;;
23614;SDS011;11985;49.404;7.734;2023-03-01T18:39:15;20.35;;;8.68;;
23614;SDS011;11985;49.404;7.734;2023-03-01T18:44:18;17.63;;;8.15;;
23614;SDS011;11985;49.404;7.734;2023-03-01T18:49:21;19.48;;;8.88;;
23614;SDS011;11985;49.404;7.734;2023-03-01T18:54:23;18.67;;;9.13;;
23614;SDS011;11985;49.404;7.734;2023-03-01T18:59:24;19.42;;;9.38;;
23614;SDS011;11985;49.404;7.734;2023-03-01T19:04:27;17.60;;;8.00;;
23614;SDS011;11985;49.404;7.734;2023-03-01T19:09:29;22.27;;;9.15;;
23614;SDS011;11985;49.404;7.734;2023-03-01T19:14:31;18.85;;;9.20;;
23614;SDS011;11985;49.404;7.734;2023-03-01T19:19:34;17.25;;;9.90;;
23614;SDS011;11985;49.404;7.734;2023-03-01T19:24:35;17.33;;;8.30;;
23614;SDS011;11985;49.404;7.734;2023-03-01T19:29:37;21.10;;;10.00;;
23614;SDS011;11985;49.404;7.734;2023-03-01T19:34:40;22.65;;;9.50;;
23614;SDS011;11985;49.404;7.734;2023-03-01T19:39:42;19.60;;;8.80;;
23614;SDS011;11985;49.404;7.734;2023-03-01T19:44:43;17.58;;;8.75;;
23614;SDS011;11985;49.404;7.734;2023-03-01T19:49:46;18.30;;;9.27;;
23614;SDS011;11985;49.404;7.734;2023-03-01T19:54:48;18.70;;;9.95;;
23614;SDS011;11985;49.404;7.734;2023-03-01T19:59:50;19.70;;;9.32;;
23614;SDS011;11985;49.404;7.734;2023-03-01T20:04:52;19.63;;;9.18;;
23614;SDS011;11985;49.404;7.734;2023-03-01T20:14:59;22.48;;;10.48;;
23614;SDS011;11985;49.404;7.734;2023-03-01T20:20:02;22.88;;;10.80;;
23614;SDS011;11985;49.404;7.734;2023-03-01T20:25:05;26.90;;;11.63;;
23614;SDS011;11985;49.404;7.734;2023-03-01T20:30:08;40.78;;;16.98;;
23614;SDS011;11985;49.404;7.734;2023-03-01T20:35:12;69.50;;;25.02;;
23614;SDS011;11985;49.404;7.734;2023-03-01T20:40:14;23.40;;;10.65;;
23614;SDS011;11985;49.404;7.734;2023-03-01T20:45:16;25.65;;;10.77;;
23614;SDS011;11985;49.404;7.734;2023-03-01T20:50:19;25.15;;;10.30;;
23614;SDS011;11985;49.404;7.734;2023-03-01T20:55:21;24.67;;;11.80;;
23614;SDS011;11985;49.404;7.734;2023-03-01T21:00:22;23.83;;;10.45;;
23614;SDS011;11985;49.404;7.734;2023-03-01T21:05:25;27.83;;;11.75;;
23614;SDS011;11985;49.404;7.734;2023-03-01T21:10:27;20.00;;;9.85;;
23614;SDS011;11985;49.404;7.734;2023-03-01T21:15:29;26.15;;;11.05;;
23614;SDS011;11985;49.404;7.734;2023-03-01T21:20:32;22.00;;;10.45;;
23614;SDS011;11985;49.404;7.734;2023-03-01T21:25:41;18.52;;;10.27;;
23614;SDS011;11985;49.404;7.734;2023-03-01T21:30:44;21.60;;;10.55;;
23614;SDS011;11985;49.404;7.734;2023-03-01T21:35:47;21.88;;;10.63;;
23614;SDS011;11985;49.404;7.734;2023-03-01T21:40:48;23.63;;;11.57;;
23614;SDS011;11985;49.404;7.734;2023-03-01T21:45:50;24.65;;;11.25;;
23614;SDS011;11985;49.404;7.734;2023-03-01T21:50:56;26.65;;;11.40;;
23614;SDS011;11985;49.404;7.734;2023-03-01T21:55:59;25.00;;;12.13;;
23614;SDS011;11985;49.404;7.734;2023-03-01T22:01:05;28.40;;;12.52;;
23614;SDS011;11985;49.404;7.734;2023-03-01T22:06:10;24.33;;;11.13;;
23614;SDS011;11985;49.404;7.734;2023-03-01T22:11:17;22.90;;;10.68;;
23614;SDS011;11985;49.404;7.734;2023-03-01T22:16:21;25.23;;;11.80;;
23614;SDS011;11985;49.404;7.734;2023-03-01T22:21:25;32.38;;;12.55;;
23614;SDS011;11985;49.404;7.734;2023-03-01T22:26:28;24.48;;;11.32;;
23614;SDS011;11985;49.404;7.734;2023-03-01T22:31:30;27.73;;;12.13;;
23614;SDS011;11985;49.404;7.734;2023-03-01T22:36:33;26.55;;;11.75;;
23614;SDS011;11985;49.404;7.734;2023-03-01T22:41:36;31.15;;;12.77;;
23614;SDS011;11985;49.404;7.734;2023-03-01T22:51:43;27.45;;;10.77;;
23614;SDS011;11985;49.404;7.734;2023-03-01T22:56:46;26.77;;;11.68;;
23614;SDS011;11985;49.404;7.734;2023-03-01T23:01:48;22.65;;;11.55;;
23614;SDS011;11985;49.404;7.734;2023-03-01T23:06:52;27.58;;;11.25;;
23614;SDS011;11985;49.404;7.734;2023-03-01T23:11:54;27.98;;;11.13;;
23614;SDS011;11985;49.404;7.734;2023-03-01T23:16:55;25.73;;;12.32;;
23614;SDS011;11985;49.404;7.734;2023-03-01T23:22:00;28.17;;;12.82;;
23614;SDS011;11985;49.404;7.734;2023-03-01T23:27:02;26.60;;;11.10;;
23614;SDS011;11985;49.404;7.734;2023-03-01T23:32:04;26.00;;;12.25;;
23614;SDS011;11985;49.404;7.734;2023-03-01T23:37:07;27.90;;;12.35;;
23614;SDS011;11985;49.404;7.734;2023-03-01T23:42:09;29.95;;;12.63;;
23614;SDS011;11985;49.404;7.734;2023-03-01T23:47:10;29.15;;;11.75;;
23614;SDS011;11985;49.404;7.734;2023-03-01T23:52:13;29.80;;;12.55;;
23614;SDS011;11985;49.404;7.734;2023-03-01T23:57:16;29.80;;;12.53;;
